Time;durP1;ratioP1;P1;durP2;ratioP2;P2;SDS_P1;SDS_P2;PMS_P1;PMS_P2;Temp;Humidity;BMP_temperature;BMP_pressure;BME280_temperature;BME280_humidity;BME280_pressure;Samples;Min_cycle;Max_cycle;Signal;HPM_P1;HPM_P2
2022/03/18 00:01:24;;;;;;;15.17;10.17;;;11.20;86.50;;;;;;4853850;29;20469;-79
2022/03/18 00:03:53;;;;;;;16.60;11.30;;;11.20;48.40;;;;;;4850948;29;20975;-80
2022/03/18 00:06:21;;;;;;;15.80;10.73;;;11.20;54.80;;;;;;4853594;29;20494;-80
2022/03/18 00:08:51;;;;;;;14.00;9.70;;;11.20;1.00;;;;;;4849888;29;20517;-79
2022/03/18 00:11:19;;;;;;;13.83;9.97;;;11.30;1.00;;;;;;4854294;29;20478;-80
2022/03/18 00:13:47;;;;;;;15.60;9.83;;;11.20;1.00;;;;;;4848453;29;20583;-81
2022/03/18 00:16:15;;;;;;;15.87;10.57;;;11.20;1.00;;;;;;4855351;29;20492;-79
2022/03/18 00:18:45;;;;;;;14.33;9.93;;;11.20;42.50;;;;;;4851990;29;20530;-79
2022/03/18 00:21:13;;;;;;;15.10;10.97;;;11.20;56.60;;;;;;4853581;29;20709;-79
2022/03/18 00:23:41;;;;;;;13.80;9.77;;;11.20;72.50;;;;;;4849892;29;20473;-79
2022/03/18 00:26:11;;;;;;;12.63;9.93;;;11.20;10.20;;;;;;4853872;29;21020;-79
2022/03/18 00:28:43;;;;;;;17.10;9.80;;;11.20;1.00;;;;;;4853480;29;20480;-78
2022/03/18 00:31:12;;;;;;;14.13;10.20;;;11.10;27.30;;;;;;4853806;29;20465;-78
2022/03/18 00:33:40;;;;;;;12.80;8.97;;;11.10;54.80;;;;;;4851449;29;22500;-79
2022/03/18 00:36:08;;;;;;;14.50;10.07;;;11.10;50.60;;;;;;4850807;29;20495;-79
2022/03/18 00:38:36;;;;;;;16.77;11.33;;;11.10;43.80;;;;;;4857874;29;20476;-80
2022/03/18 00:41:04;;;;;;;12.20;9.40;;;11.10;1.00;;;;;;4854860;29;20464;-79
2022/03/18 00:43:34;;;;;;;13.27;10.30;;;11.10;4.10;;;;;;4852345;29;20516;-79
2022/03/18 00:46:02;;;;;;;14.30;10.13;;;11.20;1.00;;;;;;4863185;29;20492;-80
2022/03/18 00:54:02;;;;;;;13.27;9.80;;;11.20;8.50;;;;;;4848096;29;20503;-80
2022/03/18 00:56:30;;;;;;;12.10;9.33;;;11.20;1.00;;;;;;4854278;29;22376;-79
2022/03/18 00:58:59;;;;;;;12.70;9.87;;;11.10;1.00;;;;;;4846879;29;20498;-79
2022/03/18 01:01:31;;;;;;;15.00;9.50;;;11.10;1.00;;;;;;4853911;29;20457;-78
2022/03/18 01:04:02;;;;;;;16.20;10.00;;;11.10;1.00;;;;;;4847330;29;20460;-79
2022/03/18 01:06:30;;;;;;;15.27;10.73;;;11.10;1.00;;;;;;4852992;29;20531;-78
2022/03/18 01:08:58;;;;;;;12.77;9.50;;;11.10;1.00;;;;;;4850813;29;20520;-77
2022/03/18 01:11:27;;;;;;;13.63;9.10;;;11.10;1.00;;;;;;4853170;29;20471;-79
2022/03/18 01:13:57;;;;;;;13.57;9.33;;;11.10;1.00;;;;;;4852790;29;20483;-78
2022/03/18 01:16:26;;;;;;;14.97;9.50;;;11.20;1.00;;;;;;4850875;29;20601;-79
2022/03/18 01:18:54;;;;;;;9.47;8.00;;;11.10;1.00;;;;;;4850597;29;20468;-79
2022/03/18 01:21:23;;;;;;;15.10;10.73;;;11.00;1.00;;;;;;4853270;29;20475;-78
2022/03/18 01:23:51;;;;;;;12.37;9.07;;;11.00;30.80;;;;;;4851191;29;20467;-79
2022/03/18 01:26:19;;;;;;;13.70;8.80;;;11.00;1.00;;;;;;4853552;29;20509;-79
2022/03/18 01:28:47;;;;;;;12.50;8.60;;;11.00;1.20;;;;;;4853177;29;20486;-78
2022/03/18 01:31:15;;;;;;;11.40;8.97;;;11.00;3.20;;;;;;4851248;29;20456;-78
2022/03/18 01:33:45;;;;;;;14.17;9.40;;;11.00;1.00;;;;;;4851933;29;21004;-79
2022/03/18 01:36:13;;;;;;;13.00;9.53;;;11.00;1.00;;;;;;4853516;29;20494;-77
2022/03/18 01:38:41;;;;;;;12.60;9.80;;;11.00;1.00;;;;;;4850763;29;20475;-78
2022/03/18 01:41:11;;;;;;;13.73;9.20;;;11.00;1.00;;;;;;4853006;29;20470;-78
2022/03/18 01:43:41;;;;;;;15.00;9.37;;;10.90;1.00;;;;;;4851053;29;20477;-79
2022/03/18 01:46:09;;;;;;;13.60;9.33;;;10.90;1.00;;;;;;4849055;29;20471;-78
2022/03/18 01:48:37;;;;;;;14.13;7.67;;;11.00;1.00;;;;;;4849789;29;20528;-78
2022/03/18 01:51:07;;;;;;;13.07;8.60;;;11.00;1.00;;;;;;4853851;29;20463;-78
2022/03/18 01:53:37;;;;;;;12.50;8.63;;;11.00;1.00;;;;;;4852322;29;20491;-78
2022/03/18 01:56:06;;;;;;;13.63;9.23;;;11.00;1.00;;;;;;4851427;29;20514;-78
2022/03/18 01:58:34;;;;;;;13.83;8.57;;;11.00;1.00;;;;;;4852283;29;21189;-78
2022/03/18 02:01:04;;;;;;;10.70;7.50;;;11.00;1.00;;;;;;4853806;29;20490;-79
2022/03/18 02:03:32;;;;;;;12.70;8.63;;;11.00;1.00;;;;;;4850451;29;20452;-79
2022/03/18 02:06:01;;;;;;;14.10;9.03;;;11.00;1.00;;;;;;4852213;29;20507;-78
2022/03/18 02:08:31;;;;;;;11.63;8.70;;;10.90;1.00;;;;;;4850753;29;20500;-79
2022/03/18 02:10:59;;;;;;;13.90;8.60;;;10.90;1.00;;;;;;4852195;29;20538;-78
2022/03/18 02:13:27;;;;;;;13.30;8.03;;;10.90;1.00;;;;;;4851698;29;20481;-78
2022/03/18 02:15:55;;;;;;;9.27;7.33;;;10.90;1.00;;;;;;4853028;29;20479;-78
2022/03/18 02:18:24;;;;;;;14.53;7.90;;;10.90;1.00;;;;;;4849499;29;20452;-78
2022/03/18 02:20:52;;;;;;;12.57;8.23;;;11.20;1.00;;;;;;4853718;29;20558;-77
2022/03/18 02:23:22;;;;;;;15.10;8.00;;;11.00;1.00;;;;;;4853699;29;21933;-78
2022/03/18 02:25:50;;;;;;;11.20;6.90;;;10.90;1.00;;;;;;4849152;29;20493;-79
2022/03/18 02:28:19;;;;;;;11.33;9.03;;;10.90;1.00;;;;;;4851299;29;20459;-78
2022/03/18 02:30:47;;;;;;;10.50;8.10;;;10.90;1.00;;;;;;4855732;29;20466;-78
2022/03/18 02:33:17;;;;;;;14.67;9.30;;;10.90;1.00;;;;;;4854674;29;20455;-79
2022/03/18 02:35:45;;;;;;;12.20;8.10;;;10.90;1.00;;;;;;4854315;29;20504;-78
2022/03/18 02:38:13;;;;;;;10.53;7.57;;;10.80;1.00;;;;;;4857533;29;20463;-78
2022/03/18 02:40:43;;;;;;;13.10;8.57;;;10.90;1.00;;;;;;4856056;29;20466;-78
2022/03/18 02:43:11;;;;;;;11.10;8.77;;;10.80;1.00;;;;;;4856233;29;20448;-79
2022/03/18 02:45:39;;;;;;;12.40;8.23;;;10.80;1.00;;;;;;4852416;29;20493;-78
2022/03/18 02:48:07;;;;;;;11.90;8.17;;;10.80;1.00;;;;;;4868030;29;20459;-78
2022/03/18 02:50:36;;;;;;;10.80;8.50;;;10.80;1.00;;;;;;4854955;29;20473;-79
2022/03/18 02:53:04;;;;;;;12.03;7.60;;;10.80;1.00;;;;;;4855373;29;20466;-79
2022/03/18 02:55:32;;;;;;;9.57;7.10;;;10.80;1.00;;;;;;4866074;29;20491;-79
2022/03/18 02:58:02;;;;;;;11.43;8.57;;;10.80;1.00;;;;;;4855930;29;20452;-78
2022/03/18 03:00:30;;;;;;;15.03;7.83;;;10.40;1.00;;;;;;4853273;29;21012;-78
2022/03/18 03:02:58;;;;;;;10.80;7.70;;;10.80;1.00;;;;;;4853789;29;20465;-79
2022/03/18 03:08:13;;;;;;;8.63;7.73;;;10.80;1.00;;;;;;4852241;29;20469;-78
2022/03/18 03:10:42;;;;;;;11.87;7.90;;;10.80;1.00;;;;;;4853482;29;20494;-78
2022/03/18 03:13:11;;;;;;;12.57;8.77;;;10.80;1.00;;;;;;4854411;29;20463;-78
2022/03/18 03:15:40;;;;;;;13.60;8.37;;;10.80;1.00;;;;;;4851750;29;20501;-79
2022/03/18 03:18:09;;;;;;;14.20;8.33;;;10.80;1.00;;;;;;4855981;29;20468;-79
2022/03/18 03:20:37;;;;;;;12.13;7.63;;;10.70;1.00;;;;;;4854269;29;20486;-78
2022/03/18 03:23:05;;;;;;;11.50;8.10;;;10.80;1.00;;;;;;4868256;29;20524;-78
2022/03/18 03:25:33;;;;;;;9.03;7.47;;;10.80;1.00;;;;;;4851737;29;20511;-78
2022/03/18 03:28:02;;;;;;;9.60;7.43;;;10.70;1.00;;;;;;4857125;29;20467;-77
2022/03/18 03:30:31;;;;;;;11.90;8.70;;;10.70;1.00;;;;;;4853096;29;20467;-78
2022/03/18 03:32:59;;;;;;;12.13;8.10;;;10.70;1.00;;;;;;4870387;29;20465;-78
2022/03/18 03:35:27;;;;;;;9.40;6.30;;;10.80;1.00;;;;;;4853736;29;20594;-77
2022/03/18 03:37:56;;;;;;;10.03;7.67;;;10.60;1.00;;;;;;4854957;29;20541;-77
2022/03/18 03:40:24;;;;;;;9.63;6.63;;;10.70;1.00;;;;;;4853730;29;20464;-78
2022/03/18 03:42:53;;;;;;;9.60;6.47;;;10.60;1.00;;;;;;4848907;29;20479;-78
2022/03/18 03:45:22;;;;;;;8.60;6.13;;;10.70;1.00;;;;;;4852355;29;20878;-79
2022/03/18 03:47:52;;;;;;;8.70;6.90;;;10.70;1.00;;;;;;4856300;29;21043;-79
2022/03/18 03:50:21;;;;;;;12.90;7.30;;;10.90;1.00;;;;;;4852753;29;20473;-79
2022/03/18 03:52:49;;;;;;;7.33;6.53;;;10.70;1.00;;;;;;4853377;29;20458;-78
2022/03/18 03:55:17;;;;;;;9.00;6.07;;;10.60;1.00;;;;;;4853587;29;20505;-79
2022/03/18 03:57:45;;;;;;;9.47;6.80;;;10.60;1.00;;;;;;4853179;29;20538;-79
2022/03/18 04:00:14;;;;;;;8.30;5.97;;;10.90;1.00;;;;;;4851288;29;20476;-80
2022/03/18 04:02:43;;;;;;;10.40;7.17;;;10.60;1.00;;;;;;4853454;29;20466;-79
2022/03/18 04:05:14;;;;;;;9.40;7.43;;;10.60;1.00;;;;;;4852757;29;20464;-79
2022/03/18 04:07:44;;;;;;;10.37;6.80;;;10.70;1.00;;;;;;4852713;29;20460;-80
2022/03/18 04:10:14;;;;;;;10.37;9.27;;;10.60;1.00;;;;;;4851233;29;21039;-79
2022/03/18 04:12:44;;;;;;;10.40;6.70;;;10.60;1.00;;;;;;4852912;29;20535;-79
2022/03/18 04:15:12;;;;;;;7.23;6.03;;;10.70;1.00;;;;;;4851712;29;20480;-79
2022/03/18 04:17:43;;;;;;;10.07;5.80;;;10.60;1.00;;;;;;4854106;29;20531;-79
2022/03/18 04:20:14;;;;;;;7.60;5.47;;;10.70;1.00;;;;;;4852393;29;20498;-79
2022/03/18 04:22:43;;;;;;;11.07;6.43;;;10.70;1.00;;;;;;4853085;29;20451;-79
2022/03/18 04:25:12;;;;;;;10.57;6.43;;;10.70;1.00;;;;;;4851102;29;20457;-78
2022/03/18 04:27:41;;;;;;;9.57;5.87;;;10.60;1.00;;;;;;4852850;29;20468;-80
2022/03/18 04:30:10;;;;;;;8.10;5.47;;;10.60;1.00;;;;;;4853616;29;20464;-79
2022/03/18 04:32:39;;;;;;;11.53;7.27;;;10.50;1.00;;;;;;4851034;29;20453;-78
2022/03/18 04:35:09;;;;;;;8.83;6.80;;;10.60;1.00;;;;;;4851074;29;20755;-79
2022/03/18 04:37:41;;;;;;;9.80;6.90;;;10.50;1.00;;;;;;4854028;29;20477;-79
2022/03/18 04:40:11;;;;;;;10.20;6.47;;;10.60;1.00;;;;;;4852354;29;20462;-79
2022/03/18 04:42:39;;;;;;;8.80;6.33;;;10.50;1.00;;;;;;4854425;29;20458;-80
2022/03/18 04:45:08;;;;;;;14.33;7.63;;;10.60;1.00;;;;;;4865822;29;20465;-78
2022/03/18 04:47:36;;;;;;;9.57;6.20;;;10.50;1.00;;;;;;4866577;29;20472;-78
2022/03/18 04:50:06;;;;;;;12.63;8.00;;;10.60;1.00;;;;;;4852639;29;20471;-78
2022/03/18 04:52:34;;;;;;;11.23;6.10;;;10.50;1.00;;;;;;4851654;29;20545;-79
2022/03/18 04:55:05;;;;;;;10.23;7.30;;;10.50;1.00;;;;;;4852124;29;20847;-80
2022/03/18 04:57:33;;;;;;;9.43;7.53;;;10.40;1.00;;;;;;4850569;29;20964;-78
2022/03/18 05:00:01;;;;;;;9.60;6.70;;;10.50;1.00;;;;;;4853197;29;20462;-79
2022/03/18 05:02:29;;;;;;;9.27;6.80;;;10.50;1.00;;;;;;4852615;29;20471;-79
2022/03/18 05:04:58;;;;;;;10.40;6.47;;;10.50;1.00;;;;;;4851313;29;20459;-79
2022/03/18 05:07:26;;;;;;;12.23;7.13;;;10.40;1.00;;;;;;4868138;29;20503;-79
2022/03/18 05:09:55;;;;;;;11.50;7.00;;;10.40;1.00;;;;;;4852390;29;20473;-79
2022/03/18 05:12:26;;;;;;;10.30;7.00;;;10.50;1.00;;;;;;4855783;29;20464;-83
2022/03/18 05:14:55;;;;;;;10.60;6.23;;;10.50;1.00;;;;;;4858008;29;20484;-83
2022/03/18 05:17:23;;;;;;;12.70;6.97;;;10.60;1.00;;;;;;4855979;29;20848;-78
2022/03/18 05:19:52;;;;;;;11.07;8.07;;;10.50;1.00;;;;;;4858374;29;20463;-79
2022/03/18 05:22:20;;;;;;;11.80;7.47;;;10.50;1.00;;;;;;4851077;29;20475;-77
2022/03/18 05:24:48;;;;;;;12.20;7.60;;;10.40;1.00;;;;;;4851508;29;20526;-77
2022/03/18 05:27:17;;;;;;;10.40;5.60;;;10.40;1.00;;;;;;4853303;29;20498;-77
2022/03/18 05:29:47;;;;;;;12.20;7.80;;;10.40;1.00;;;;;;4851579;29;20458;-77
2022/03/18 05:32:16;;;;;;;10.30;7.67;;;10.30;1.00;;;;;;4853228;29;20533;-77
2022/03/18 05:34:44;;;;;;;10.03;6.90;;;10.40;1.00;;;;;;4851145;29;20551;-77
2022/03/18 05:37:13;;;;;;;10.53;7.60;;;10.40;1.00;;;;;;4856286;29;21029;-76
2022/03/18 05:39:41;;;;;;;10.30;7.73;;;10.40;1.00;;;;;;4853639;29;21297;-77
2022/03/18 05:42:10;;;;;;;13.07;7.60;;;10.40;1.00;;;;;;4851406;29;20472;-77
2022/03/18 05:44:38;;;;;;;12.07;8.00;;;10.40;1.00;;;;;;4864134;29;20490;-77
2022/03/18 05:47:08;;;;;;;11.07;7.30;;;10.30;1.00;;;;;;4851923;29;20540;-76
2022/03/18 05:49:36;;;;;;;8.67;7.27;;;10.40;1.00;;;;;;4854029;29;20817;-77
2022/03/18 05:52:09;;;;;;;11.73;7.33;;;10.40;1.00;;;;;;4854314;29;20486;-77
2022/03/18 05:54:37;;;;;;;12.07;7.37;;;10.40;1.00;;;;;;4848286;29;20471;-77
2022/03/18 05:57:04;;;;;;;11.20;8.20;;;10.40;1.00;;;;;;4856360;29;20504;-77
2022/03/18 05:59:34;;;;;;;11.40;7.90;;;10.40;1.00;;;;;;4859379;29;20485;-77
2022/03/18 06:02:02;;;;;;;10.80;7.43;;;10.40;1.00;;;;;;4855418;29;20456;-78
2022/03/18 06:04:32;;;;;;;12.70;7.70;;;10.40;1.00;;;;;;4854950;29;20479;-79
2022/03/18 06:07:03;;;;;;;10.70;7.60;;;10.30;1.00;;;;;;4859107;29;20470;-77
2022/03/18 06:12:18;;;;;;;13.43;8.73;;;10.30;1.00;;;;;;4855596;29;20468;-78
2022/03/18 06:14:46;;;;;;;11.77;8.30;;;10.50;1.00;;;;;;4866348;29;20476;-77
2022/03/18 06:17:14;;;;;;;9.60;6.30;;;10.30;1.00;;;;;;4852618;29;20488;-78
2022/03/18 06:19:44;;;;;;;11.77;8.43;;;10.20;1.00;;;;;;4851750;29;20951;-77
2022/03/18 06:22:12;;;;;;;11.40;7.00;;;10.20;1.00;;;;;;4853958;29;21000;-78
2022/03/18 06:24:40;;;;;;;12.17;8.17;;;10.20;1.00;;;;;;4851025;29;20487;-77
2022/03/18 06:27:09;;;;;;;12.80;8.23;;;10.20;1.00;;;;;;4853445;29;20485;-78
2022/03/18 06:29:39;;;;;;;11.13;7.80;;;10.30;1.00;;;;;;4856068;29;20470;-77
2022/03/18 06:32:09;;;;;;;11.37;7.47;;;10.50;1.00;;;;;;4852280;29;20466;-77
2022/03/18 06:34:38;;;;;;;11.90;8.80;;;10.30;1.00;;;;;;4869308;29;20516;-78
2022/03/18 06:37:08;;;;;;;12.97;8.37;;;10.30;1.00;;;;;;4855827;29;20499;-77
2022/03/18 06:39:36;;;;;;;11.87;8.10;;;10.40;1.00;;;;;;4857372;29;20504;-78
2022/03/18 06:42:05;;;;;;;12.43;8.07;;;10.40;1.00;;;;;;4858004;29;20477;-79
2022/03/18 06:44:33;;;;;;;13.13;8.73;;;10.40;1.00;;;;;;4857467;29;20467;-79
2022/03/18 06:47:01;;;;;;;15.23;9.53;;;10.50;1.00;;;;;;4853732;29;20481;-78
2022/03/18 06:49:29;;;;;;;12.23;7.87;;;10.40;1.00;;;;;;4853467;29;20467;-77
2022/03/18 06:51:59;;;;;;;14.73;9.83;;;10.40;1.00;;;;;;4851212;29;21128;-78
2022/03/18 06:54:28;;;;;;;13.27;8.33;;;10.60;1.00;;;;;;4851574;29;20472;-77
2022/03/18 06:56:56;;;;;;;12.97;8.80;;;10.30;1.00;;;;;;4854253;29;20574;-77
2022/03/18 06:59:24;;;;;;;12.40;8.77;;;10.30;1.00;;;;;;4852178;29;20454;-77
2022/03/18 07:01:54;;;;;;;11.10;8.33;;;10.30;1.00;;;;;;4855129;29;20476;-78
2022/03/18 07:04:23;;;;;;;14.10;8.20;;;10.30;1.00;;;;;;4853900;29;20463;-77
2022/03/18 07:06:52;;;;;;;13.50;8.80;;;10.30;1.00;;;;;;4854667;29;20484;-77
2022/03/18 07:09:20;;;;;;;11.17;7.67;;;10.30;1.00;;;;;;4855512;29;20467;-77
2022/03/18 07:11:49;;;;;;;11.87;8.57;;;10.40;1.00;;;;;;4855153;29;20479;-77
2022/03/18 07:14:18;;;;;;;13.40;8.83;;;10.40;1.00;;;;;;4852393;29;21185;-79
2022/03/18 07:19:32;;;;;;;17.20;9.50;;;10.50;1.00;;;;;;4844879;29;20472;-76
2022/03/18 07:22:00;;;;;;;16.53;10.80;;;10.40;1.00;;;;;;4854229;29;21043;-77
2022/03/18 07:24:28;;;;;;;16.00;10.30;;;10.40;1.00;;;;;;4854688;29;20459;-77
2022/03/18 07:26:58;;;;;;;15.57;9.63;;;10.40;1.00;;;;;;4854074;29;20480;-78
2022/03/18 07:29:26;;;;;;;14.30;9.23;;;10.50;1.00;;;;;;4854956;29;20559;-75
2022/03/18 07:31:55;;;;;;;17.48;12.30;;;10.40;1.00;;;;;;4853394;29;20466;-78
2022/03/18 07:34:24;;;;;;;17.10;9.70;;;10.60;1.00;;;;;;4854912;29;20214;-77
2022/03/18 07:36:52;;;;;;;14.43;10.23;;;10.60;1.00;;;;;;4853260;29;20490;-77
2022/03/18 07:39:20;;;;;;;17.90;10.37;;;10.60;1.00;;;;;;4855832;29;20463;-76
2022/03/18 07:41:48;;;;;;;19.50;11.77;;;10.60;1.00;;;;;;4854410;29;21039;-77
2022/03/18 07:44:18;;;;;;;18.33;10.77;;;10.60;1.00;;;;;;4863487;29;20472;-77
2022/03/18 07:46:46;;;;;;;17.03;10.83;;;10.60;1.00;;;;;;4855726;29;20859;-77
2022/03/18 07:49:14;;;;;;;16.70;9.63;;;10.60;1.00;;;;;;4856331;29;20470;-78
2022/03/18 07:51:43;;;;;;;16.40;11.47;;;10.70;1.00;;;;;;4848785;29;20464;-76
2022/03/18 07:54:11;;;;;;;16.30;9.63;;;10.70;1.00;;;;;;4853060;29;20464;-75
2022/03/18 07:56:39;;;;;;;15.17;10.10;;;10.70;1.00;;;;;;4854852;29;20483;-78
2022/03/18 07:59:07;;;;;;;17.90;11.57;;;10.60;1.00;;;;;;4854298;29;21027;-77
2022/03/18 08:01:39;;;;;;;19.33;12.10;;;10.60;1.00;;;;;;4854424;29;20457;-77
2022/03/18 08:04:12;;;;;;;18.10;10.53;;;10.60;1.00;;;;;;4856625;29;20464;-76
2022/03/18 08:06:40;;;;;;;18.90;11.40;;;10.60;1.00;;;;;;4856153;29;20537;-77
2022/03/18 08:09:08;;;;;;;18.30;12.50;;;10.70;1.00;;;;;;4864952;29;21031;-78
2022/03/18 08:11:37;;;;;;;21.67;11.53;;;10.70;1.00;;;;;;4856945;29;20463;-78
2022/03/18 08:14:05;;;;;;;15.87;10.83;;;10.70;1.00;;;;;;4862717;29;20844;-77
2022/03/18 08:16:33;;;;;;;23.87;13.07;;;10.70;1.00;;;;;;4852107;29;20558;-77
2022/03/18 08:19:03;;;;;;;22.47;12.43;;;10.70;1.00;;;;;;4855121;29;20472;-77
2022/03/18 08:21:33;;;;;;;22.07;12.60;;;10.70;1.00;;;;;;4853958;29;20474;-78
2022/03/18 08:24:01;;;;;;;19.80;13.00;;;10.70;1.00;;;;;;4856896;29;20457;-76
2022/03/18 08:26:29;;;;;;;21.83;12.57;;;10.70;1.00;;;;;;4849576;29;20512;-78
2022/03/18 08:28:57;;;;;;;22.03;15.67;;;10.60;1.00;;;;;;4851501;29;20500;-78
2022/03/18 08:31:26;;;;;;;22.80;13.53;;;10.60;1.00;;;;;;4851359;29;21782;-78
2022/03/18 08:33:55;;;;;;;22.77;12.90;;;10.70;1.00;;;;;;4853088;29;20458;-76
2022/03/18 08:36:24;;;;;;;20.63;13.47;;;10.70;1.00;;;;;;4852384;29;20484;-77
2022/03/18 08:38:53;;;;;;;23.90;13.47;;;10.70;1.00;;;;;;4853988;29;20961;-78
2022/03/18 08:41:21;;;;;;;23.10;15.30;;;10.70;1.00;;;;;;4853308;29;20546;-78
2022/03/18 08:43:50;;;;;;;26.07;14.63;;;10.70;1.00;;;;;;4850935;29;20471;-78
2022/03/18 08:46:18;;;;;;;24.17;13.77;;;10.70;1.00;;;;;;4851834;29;20491;-77
2022/03/18 08:48:46;;;;;;;24.33;14.33;;;10.60;1.00;;;;;;4849592;29;21025;-77
2022/03/18 08:51:15;;;;;;;29.07;15.93;;;10.60;1.00;;;;;;4854134;29;20492;-77
2022/03/18 08:53:45;;;;;;;28.30;15.20;;;10.60;1.00;;;;;;4854429;29;20471;-78
2022/03/18 08:56:13;;;;;;;29.37;15.67;;;10.70;1.00;;;;;;4866717;29;20859;-77
2022/03/18 08:58:41;;;;;;;26.73;14.97;;;10.70;1.00;;;;;;4850415;29;20729;-78
2022/03/18 09:01:12;;;;;;;28.33;15.80;;;10.90;1.00;;;;;;4851747;29;20466;-79
2022/03/18 09:03:40;;;;;;;21.80;16.13;;;11.00;1.00;;;;;;4852016;29;20460;-77
2022/03/18 09:06:11;;;;;;;27.63;15.97;;;11.10;1.00;;;;;;4853197;29;20481;-77
2022/03/18 09:08:40;;;;;;;31.10;15.33;;;10.90;1.00;;;;;;4850049;29;20488;-78
2022/03/18 09:11:09;;;;;;;25.97;15.80;;;10.90;1.00;;;;;;4852360;29;20466;-78
2022/03/18 09:13:38;;;;;;;26.67;17.27;;;10.90;1.00;;;;;;4854135;29;20831;-78
2022/03/18 09:16:06;;;;;;;31.40;18.07;;;10.90;1.00;;;;;;4852568;29;20503;-79
2022/03/18 09:18:55;;;;;;;28.00;15.20;;;10.90;1.00;;;;;;4852570;29;20551;-76
2022/03/18 09:21:23;;;;;;;24.37;15.00;;;10.90;99.90;;;;;;4853082;29;20472;-77
2022/03/18 09:23:51;;;;;;;25.93;15.97;;;10.90;1.00;;;;;;4853965;29;20463;-77
2022/03/18 09:26:21;;;;;;;28.73;19.00;;;11.00;1.00;;;;;;4864158;29;20865;-78
2022/03/18 09:28:49;;;;;;;28.30;18.30;;;11.10;99.90;;;;;;4857955;29;20455;-78
2022/03/18 09:31:17;;;;;;;26.77;16.73;;;11.00;99.90;;;;;;4861161;29;20505;-78
2022/03/18 09:33:46;;;;;;;24.03;15.47;;;11.00;99.90;;;;;;4850477;29;20558;-78
2022/03/18 09:36:18;;;;;;;21.60;15.20;;;11.00;99.90;;;;;;4851627;29;20487;-78
2022/03/18 09:38:48;;;;;;;24.87;15.70;;;11.10;99.90;;;;;;4851081;29;20584;-78
2022/03/18 09:41:17;;;;;;;25.50;14.97;;;11.00;99.90;;;;;;4850428;29;20552;-77
2022/03/18 09:43:47;;;;;;;21.87;14.17;;;11.00;99.90;;;;;;4851991;29;20459;-78
2022/03/18 09:46:16;;;;;;;18.87;13.70;;;11.00;99.90;;;;;;4849583;29;20495;-78
2022/03/18 09:49:01;;;;;;;21.90;13.70;;;11.10;99.90;;;;;;4850329;29;20995;-77
2022/03/18 09:51:30;;;;;;;20.03;13.80;;;11.20;99.90;;;;;;4851465;29;20525;-78
2022/03/18 09:54:18;;;;;;;22.47;14.27;;;11.20;99.90;;;;;;4853702;29;20471;-77
2022/03/18 09:56:48;;;;;;;22.83;13.60;;;11.20;99.90;;;;;;4853865;29;20494;-78
2022/03/18 09:59:19;;;;;;;23.10;13.30;;;11.30;99.90;;;;;;4861343;29;20480;-77
2022/03/18 10:01:47;;;;;;;20.30;12.07;;;11.30;99.90;;;;;;4853676;29;20551;-77
2022/03/18 10:04:16;;;;;;;18.83;12.30;;;11.50;99.90;;;;;;4855893;29;21547;-79
2022/03/18 10:06:44;;;;;;;24.27;13.53;;;11.60;99.90;;;;;;4850492;29;21240;-79
2022/03/18 10:09:15;;;;;;;20.40;13.63;;;11.50;99.90;;;;;;4851651;29;20464;-78
2022/03/18 10:11:47;;;;;;;20.20;13.27;;;11.50;99.90;;;;;;4852479;29;20546;-78
2022/03/18 10:14:20;;;;;;;18.97;13.10;;;11.50;99.90;;;;;;4853681;29;20468;-78
2022/03/18 10:16:50;;;;;;;18.23;11.33;;;11.60;99.90;;;;;;4859742;29;20505;-78
2022/03/18 10:19:21;;;;;;;18.97;13.57;;;11.60;99.90;;;;;;4855145;29;20534;-78
2022/03/18 10:21:53;;;;;;;24.80;14.93;;;11.70;99.90;;;;;;4852927;29;20466;-78
2022/03/18 10:24:27;;;;;;;22.77;13.67;;;11.80;99.90;;;;;;4851599;29;20835;-77
2022/03/18 10:27:10;;;;;;;21.57;14.03;;;11.90;99.90;;;;;;4852705;29;20543;-78
2022/03/18 10:29:43;;;;;;;17.60;12.37;;;12.00;99.90;;;;;;4850313;29;20463;-79
2022/03/18 10:32:12;;;;;;;22.43;13.20;;;12.10;99.90;;;;;;4851276;29;20460;-79
2022/03/18 10:37:40;;;;;;;19.98;14.35;;;12.30;99.90;;;;;;4849940;29;20975;-78
2022/03/18 10:40:10;;;;;;;19.97;13.80;;;11.90;99.90;;;;;;4853097;29;20204;-78
2022/03/18 10:42:39;;;;;;;23.80;14.70;;;12.30;99.90;;;;;;4854303;29;20472;-78
2022/03/18 10:45:09;;;;;;;19.30;13.10;;;12.40;99.90;;;;;;4857725;29;20468;-78
2022/03/18 10:47:39;;;;;;;20.90;13.70;;;12.40;99.90;;;;;;4858117;29;20465;-78
2022/03/18 10:50:24;;;;;;;23.60;14.50;;;12.50;99.90;;;;;;4865949;29;21074;-77
2022/03/18 10:53:07;;;;;;;20.57;14.17;;;12.70;99.90;;;;;;4849937;29;20980;-78
2022/03/18 10:55:36;;;;;;;18.57;12.73;;;12.70;99.90;;;;;;4854477;29;20495;-78
2022/03/18 10:58:10;;;;;;;19.00;12.70;;;12.60;99.90;;;;;;4854114;29;20999;-78
2022/03/18 11:00:42;;;;;;;20.40;12.73;;;12.60;99.90;;;;;;4852074;29;20547;-77
2022/03/18 11:03:12;;;;;;;22.33;13.40;;;12.60;99.90;;;;;;4851651;29;20452;-78
2022/03/18 11:05:41;;;;;;;17.13;12.47;;;12.60;99.90;;;;;;4853454;29;21301;-77
2022/03/18 11:08:12;;;;;;;19.97;12.60;;;12.70;99.90;;;;;;4852644;29;20462;-77
2022/03/18 11:13:29;;;;;;;22.13;13.03;;;12.60;99.90;;;;;;4855174;29;20476;-77
2022/03/18 11:16:00;;;;;;;19.60;14.17;;;12.70;99.90;;;;;;4851035;29;20640;-77
2022/03/18 11:18:29;;;;;;;21.80;12.93;;;12.70;99.90;;;;;;4855889;29;20526;-78
2022/03/18 11:20:58;;;;;;;22.00;13.37;;;12.80;99.90;;;;;;4855578;29;20466;-78
2022/03/18 11:23:28;;;;;;;27.03;14.93;;;13.00;99.90;;;;;;4857935;29;20497;-77
2022/03/18 11:26:00;;;;;;;18.17;12.70;;;13.00;99.90;;;;;;4853174;29;20517;-77
2022/03/18 11:28:29;;;;;;;19.50;14.40;;;13.10;99.90;;;;;;4856254;29;21024;-77
2022/03/18 11:31:07;;;;;;;19.23;13.13;;;12.90;99.90;;;;;;4855877;29;20461;-77
2022/03/18 11:33:36;;;;;;;21.20;14.57;;;13.00;99.90;;;;;;4855873;29;20474;-78
2022/03/18 11:36:15;;;;;;;25.10;13.90;;;13.10;99.90;;;;;;4852442;29;20480;-78
2022/03/18 11:39:06;;;;;;;20.87;14.60;;;13.10;99.90;;;;;;4855508;29;20484;-78
2022/03/18 11:41:55;;;;;;;19.90;13.63;;;13.10;99.90;;;;;;4852878;29;20498;-78
2022/03/18 11:44:53;;;;;;;19.97;13.07;;;13.30;99.90;;;;;;4854809;29;20992;-75
2022/03/18 11:47:48;;;;;;;20.63;13.30;;;13.30;99.90;;;;;;4855392;29;20512;-78
2022/03/18 11:50:42;;;;;;;25.83;13.20;;;13.30;99.90;;;;;;4848034;29;20835;-77
2022/03/18 11:53:14;;;;;;;22.63;13.87;;;13.40;99.90;;;;;;4853436;29;20825;-78
2022/03/18 11:55:46;;;;;;;24.27;14.97;;;13.40;99.90;;;;;;4854546;29;20497;-78
2022/03/18 11:58:32;;;;;;;18.67;12.50;;;13.40;99.90;;;;;;4854290;29;20482;-77
2022/03/18 12:01:00;;;;;;;23.07;14.40;;;13.40;99.90;;;;;;4856015;29;20477;-76
2022/03/18 12:03:35;;;;;;;22.17;13.00;;;13.60;99.90;;;;;;4856589;29;20505;-77
2022/03/18 12:06:04;;;;;;;22.67;13.63;;;13.60;99.90;;;;;;4868223;29;20505;-78
2022/03/18 12:08:58;;;;;;;17.97;13.40;;;13.60;99.90;;;;;;4852835;29;20470;-78
2022/03/18 12:11:37;;;;;;;20.37;12.37;;;13.70;99.90;;;;;;4852186;29;20527;-78
2022/03/18 12:14:10;;;;;;;21.13;13.90;;;13.70;99.90;;;;;;4855784;29;20880;-76
2022/03/18 12:16:38;;;;;;;22.47;12.97;;;13.70;99.90;;;;;;4855662;29;20484;-79
2022/03/18 12:19:27;;;;;;;21.20;13.73;;;13.60;99.90;;;;;;4856421;29;21025;-78
2022/03/18 12:22:00;;;;;;;21.10;13.23;;;13.60;99.90;;;;;;4855278;29;20466;-78
2022/03/18 12:24:30;;;;;;;19.93;14.20;;;13.90;99.90;;;;;;4860384;29;22550;-80
2022/03/18 12:27:00;;;;;;;22.07;14.43;;;13.70;99.90;;;;;;4868122;29;20496;-77
2022/03/18 12:29:30;;;;;;;20.57;13.53;;;13.60;99.90;;;;;;4851509;29;21022;-77
2022/03/18 12:32:06;;;;;;;17.50;12.43;;;13.60;99.90;;;;;;4856831;29;20478;-77
2022/03/18 12:34:45;;;;;;;22.03;14.40;;;13.60;99.90;;;;;;4854836;29;20491;-77
2022/03/18 12:37:17;;;;;;;21.00;14.40;;;13.60;99.90;;;;;;4855723;29;20493;-77
2022/03/18 12:39:45;;;;;;;26.73;15.87;;;13.60;99.90;;;;;;4855205;29;20501;-76
2022/03/18 12:42:13;;;;;;;20.20;14.47;;;13.40;99.90;;;;;;4850316;29;20473;-77
2022/03/18 12:44:46;;;;;;;24.60;15.90;;;13.30;99.90;;;;;;4852736;29;20578;-78
2022/03/18 12:47:15;;;;;;;25.17;15.53;;;13.30;99.90;;;;;;4857833;29;20496;-77
2022/03/18 12:49:45;;;;;;;21.83;14.13;;;13.20;99.90;;;;;;4856338;29;20466;-77
2022/03/18 12:52:14;;;;;;;22.93;15.07;;;13.30;99.90;;;;;;4857933;29;20483;-77
2022/03/18 12:55:05;;;;;;;23.60;15.30;;;13.30;99.90;;;;;;4845869;29;20475;-76
2022/03/18 12:57:34;;;;;;;19.10;13.37;;;13.40;99.90;;;;;;4854030;29;20471;-78
2022/03/18 13:00:03;;;;;;;22.03;14.90;;;13.30;99.90;;;;;;4853474;29;20496;-78
2022/03/18 13:02:52;;;;;;;23.10;14.57;;;13.40;99.90;;;;;;4851764;29;20468;-78
2022/03/18 13:05:27;;;;;;;29.87;15.97;;;13.40;99.90;;;;;;4849813;29;20497;-78
2022/03/18 13:07:57;;;;;;;21.80;15.37;;;13.40;99.90;;;;;;4855249;29;20464;-77
2022/03/18 13:10:27;;;;;;;20.00;15.07;;;13.40;99.90;;;;;;4850159;29;20510;-77
2022/03/18 13:13:07;;;;;;;22.90;14.80;;;13.40;99.90;;;;;;4852671;29;20451;-77
2022/03/18 13:15:35;;;;;;;23.00;16.90;;;13.40;99.90;;;;;;4853118;29;20496;-77